createdAt,value
2022-10-04T00:03:31.480Z,7.53
2022-10-04T00:08:08.263Z,9.67
2022-10-04T00:12:21.771Z,12.80
2022-10-04T00:16:47.048Z,5.13
2022-10-04T00:21:05.270Z,5.17
2022-10-04T00:25:34.991Z,8.37
2022-10-04T00:29:39.950Z,13.07
2022-10-04T00:33:44.922Z,9.37
2022-10-04T00:38:27.434Z,7.13
2022-10-04T00:42:47.554Z,14.27
2022-10-04T00:47:18.296Z,11.13
2022-10-04T00:51:29.351Z,6.37
2022-10-04T00:55:39.535Z,9.80
2022-10-04T01:00:13.160Z,17.83
2022-10-04T01:04:28.646Z,12.03
2022-10-04T01:08:54.574Z,9.33
2022-10-04T01:13:05.429Z,9.23
2022-10-04T01:17:11.261Z,6.17
2022-10-04T01:21:44.959Z,6.93
2022-10-04T01:25:52.134Z,8.60
2022-10-04T01:29:55.497Z,9.37
2022-10-04T01:33:59.127Z,5.37
2022-10-04T01:38:03.454Z,6.47
2022-10-04T01:42:14.512Z,9.03
2022-10-04T01:46:30.571Z,10.67
2022-10-04T01:50:39.242Z,6.13
2022-10-04T01:54:46.157Z,5.37
2022-10-04T01:59:16.771Z,5.00
2022-10-04T02:03:27.963Z,4.30
2022-10-04T02:07:56.366Z,4.03
2022-10-04T02:12:00.158Z,4.00
2022-10-04T02:16:38.698Z,4.27
2022-10-04T02:20:44.912Z,7.63
2022-10-04T02:24:50.718Z,4.23
2022-10-04T02:29:24.408Z,5.07
2022-10-04T02:33:27.658Z,5.20
2022-10-04T02:37:32.472Z,4.40
2022-10-04T02:42:11.878Z,4.37
2022-10-04T02:46:19.282Z,4.40
2022-10-04T02:50:30.835Z,9.13
2022-10-04T02:54:42.117Z,5.33
2022-10-04T02:58:45.858Z,4.10
2022-10-04T03:03:23.059Z,7.13
2022-10-04T03:08:00.174Z,5.23
2022-10-04T03:12:05.892Z,4.80
2022-10-04T03:16:41.176Z,4.90
2022-10-04T03:20:45.615Z,4.77
2022-10-04T03:24:53.615Z,6.50
2022-10-04T03:28:58.926Z,5.40
2022-10-04T03:33:33.479Z,5.47
2022-10-04T03:38:09.300Z,4.20
2022-10-04T03:42:19.908Z,5.43
2022-10-04T03:46:53.734Z,4.80
2022-10-04T03:51:29.430Z,4.67
2022-10-04T03:56:04.652Z,4.83
2022-10-04T04:00:41.043Z,4.03
2022-10-04T04:05:18.061Z,3.30
2022-10-04T04:09:55.734Z,4.13
2022-10-04T04:14:49.173Z,3.53
2022-10-04T04:19:16.682Z,3.70
2022-10-04T04:23:50.454Z,3.93
2022-10-04T04:28:32.616Z,4.27
2022-10-04T04:33:06.870Z,3.60
2022-10-04T04:37:38.551Z,3.57
2022-10-04T04:42:18.290Z,3.73
2022-10-04T04:47:00.423Z,3.80
2022-10-04T04:51:32.640Z,3.47
2022-10-04T04:56:10.407Z,3.77
2022-10-04T05:00:42.166Z,4.87
2022-10-04T05:05:22.397Z,4.07
2022-10-04T05:09:56.285Z,4.63
2022-10-04T05:14:33.282Z,3.80
2022-10-04T05:19:14.133Z,4.60
2022-10-04T05:23:44.736Z,3.90
2022-10-04T05:28:22.909Z,4.13
2022-10-04T05:33:01.433Z,4.40
2022-10-04T05:37:42.843Z,4.33
2022-10-04T05:42:13.659Z,3.93
2022-10-04T05:46:46.039Z,4.57
2022-10-04T05:51:19.665Z,4.90
2022-10-04T05:56:05.431Z,4.63
2022-10-04T06:00:37.599Z,4.80
2022-10-04T06:05:08.094Z,4.47
2022-10-04T06:09:48.116Z,4.97
2022-10-04T06:14:33.319Z,4.80
2022-10-04T06:19:15.378Z,3.90
2022-10-04T06:23:49.846Z,4.47
2022-10-04T06:28:25.749Z,5.10
2022-10-04T06:33:10.029Z,4.97
2022-10-04T06:37:52.800Z,4.37
2022-10-04T06:42:49.519Z,5.23
2022-10-04T06:47:38.626Z,5.80
2022-10-04T06:57:19.067Z,5.87
2022-10-04T07:01:35.650Z,6.60
2022-10-04T07:06:10.528Z,6.60
2022-10-04T07:10:49.868Z,6.80
2022-10-04T07:15:24.153Z,5.60
2022-10-04T07:19:35.147Z,4.53
2022-10-04T07:23:45.677Z,4.80
2022-10-04T07:28:14.981Z,4.80
2022-10-04T07:32:28.197Z,5.35
2022-10-04T07:37:03.466Z,4.97
2022-10-04T07:41:28.087Z,5.37
2022-10-04T07:50:59.427Z,5.97
2022-10-04T07:55:27.857Z,6.13
2022-10-04T07:59:46.905Z,6.20
2022-10-04T08:04:31.484Z,5.07
2022-10-04T08:09:02.368Z,5.45
2022-10-04T08:13:35.221Z,5.35
2022-10-04T08:18:11.583Z,5.57
2022-10-04T08:22:51.593Z,5.80
2022-10-04T08:27:33.897Z,6.55
2022-10-04T08:32:07.550Z,6.03
2022-10-04T08:36:41.149Z,5.72
2022-10-04T08:41:28.542Z,7.65
2022-10-04T08:51:08.226Z,6.75
2022-10-04T08:56:11.471Z,6.32
2022-10-04T09:05:42.917Z,4.97
2022-10-04T09:10:29.615Z,5.32
2022-10-04T09:15:27.677Z,4.65
2022-10-04T09:20:36.627Z,4.10
2022-10-04T09:25:10.481Z,3.80
2022-10-04T09:30:01.798Z,3.58
2022-10-04T09:34:37.225Z,3.10
2022-10-04T09:39:30.049Z,2.85
2022-10-04T09:44:10.808Z,3.53
2022-10-04T09:54:06.150Z,2.40
2022-10-04T09:58:49.077Z,2.35
2022-10-04T10:03:30.631Z,2.45
2022-10-04T10:08:01.293Z,2.90
2022-10-04T10:12:59.541Z,2.45
2022-10-04T10:17:42.880Z,2.00
2022-10-04T10:22:18.633Z,3.00
2022-10-04T10:26:52.698Z,2.55
2022-10-04T10:31:43.554Z,2.75
2022-10-04T10:36:09.330Z,2.10
2022-10-04T10:40:34.240Z,2.58
2022-10-04T10:45:15.756Z,2.70
2022-10-04T10:49:48.086Z,2.60
2022-10-04T10:54:30.711Z,1.88
2022-10-04T10:59:21.100Z,2.25
2022-10-04T11:04:03.769Z,2.42
2022-10-04T11:08:39.009Z,3.13
2022-10-04T11:13:21.425Z,1.90
2022-10-04T11:17:59.633Z,1.70
2022-10-04T11:22:45.442Z,1.85
2022-10-04T11:27:15.978Z,2.03
2022-10-04T11:32:05.838Z,2.00
2022-10-04T11:36:52.048Z,2.15
2022-10-04T11:41:25.302Z,2.20
2022-10-04T11:46:01.866Z,1.42
2022-10-04T11:50:49.355Z,1.90
2022-10-04T11:55:44.303Z,1.70
2022-10-04T12:00:22.964Z,3.30
2022-10-04T12:05:03.300Z,1.98
2022-10-04T12:09:43.357Z,2.30
2022-10-04T12:14:26.750Z,1.83
2022-10-04T12:19:15.571Z,1.50
2022-10-04T12:23:50.253Z,1.67
2022-10-04T12:28:28.691Z,2.15
2022-10-04T12:33:10.595Z,2.00
2022-10-04T12:37:41.694Z,2.33
2022-10-04T12:42:16.867Z,2.00
2022-10-04T12:46:58.285Z,2.00
2022-10-04T12:51:19.940Z,1.63
2022-10-04T12:56:03.213Z,1.30
2022-10-04T13:00:36.065Z,1.48
2022-10-04T13:05:09.644Z,1.50
2022-10-04T13:10:19.352Z,1.70
2022-10-04T13:14:30.571Z,1.60
2022-10-04T13:19:05.970Z,2.15
2022-10-04T13:23:41.453Z,2.00
2022-10-04T13:28:15.177Z,1.80
2022-10-04T13:32:45.801Z,1.70
2022-10-04T13:37:26.546Z,2.00
2022-10-04T13:42:21.389Z,1.60
2022-10-04T13:47:13.885Z,1.63
2022-10-04T13:52:14.315Z,1.85
2022-10-04T13:56:43.215Z,1.95
2022-10-04T14:01:30.152Z,1.70
2022-10-04T14:06:12.014Z,1.70
2022-10-04T14:10:54.628Z,1.70
2022-10-04T14:15:30.970Z,1.58
2022-10-04T14:20:24.518Z,2.05
2022-10-04T14:25:15.430Z,1.60
2022-10-04T14:29:51.780Z,2.00
2022-10-04T14:34:34.233Z,1.58
2022-10-04T14:39:07.622Z,1.75
2022-10-04T14:43:50.157Z,1.73
2022-10-04T14:53:22.653Z,2.40
2022-10-04T14:57:57.325Z,1.85
2022-10-04T15:02:38.179Z,1.60
2022-10-04T15:07:04.409Z,2.28
2022-10-04T15:11:42.091Z,2.20
2022-10-04T15:16:19.083Z,2.97
2022-10-04T15:20:25.771Z,2.22
2022-10-04T15:24:59.657Z,2.00
2022-10-04T15:29:44.931Z,3.72
2022-10-04T15:34:15.432Z,2.28
2022-10-04T15:38:53.875Z,1.98
2022-10-04T15:43:31.104Z,2.20
2022-10-04T15:48:13.092Z,2.20
2022-10-04T15:57:43.666Z,2.50
2022-10-04T16:02:23.361Z,3.50
2022-10-04T16:06:32.385Z,3.03
2022-10-04T16:11:17.931Z,3.60
2022-10-04T16:21:07.362Z,2.72
2022-10-04T16:25:40.271Z,2.70
2022-10-04T16:30:21.671Z,2.85
2022-10-04T16:34:54.447Z,2.95
2022-10-04T16:39:54.081Z,2.60
2022-10-04T16:44:34.399Z,3.97
2022-10-04T16:48:56.167Z,2.88
2022-10-04T16:53:32.220Z,2.90
2022-10-04T17:03:19.003Z,2.90
2022-10-04T17:08:07.281Z,3.75
2022-10-04T17:12:38.819Z,3.92
2022-10-04T17:17:19.586Z,3.78
2022-10-04T17:21:54.722Z,3.90
2022-10-04T17:26:28.490Z,3.70
2022-10-04T17:31:03.390Z,4.35
2022-10-04T17:35:49.014Z,4.22
2022-10-04T17:40:27.637Z,4.15
2022-10-04T17:45:08.616Z,5.13
2022-10-04T17:50:11.400Z,4.80
2022-10-04T17:54:42.210Z,4.75
2022-10-04T17:59:00.685Z,4.57
2022-10-04T18:03:37.330Z,5.38
2022-10-04T18:08:14.232Z,4.95
2022-10-04T18:12:48.115Z,5.72
2022-10-04T18:16:57.523Z,5.78
2022-10-04T18:21:29.259Z,8.38
2022-10-04T18:26:04.478Z,5.90
2022-10-04T18:30:52.536Z,5.90
2022-10-04T18:35:25.270Z,6.00
2022-10-04T18:40:04.076Z,6.18
2022-10-04T18:44:44.086Z,6.73
2022-10-04T18:49:14.792Z,6.17
2022-10-04T18:53:45.851Z,6.97
2022-10-04T19:03:16.537Z,5.10
2022-10-04T19:07:44.629Z,6.23
2022-10-04T19:12:22.162Z,6.90
2022-10-04T19:16:57.177Z,6.20
2022-10-04T19:21:35.180Z,5.43
2022-10-04T19:26:30.997Z,6.43
2022-10-04T19:31:21.942Z,8.27
2022-10-04T19:35:58.875Z,7.57
2022-10-04T19:40:35.119Z,7.63
2022-10-04T19:45:16.639Z,6.40
2022-10-04T19:49:46.222Z,6.80
2022-10-04T19:54:16.875Z,7.03
2022-10-04T19:59:01.361Z,7.93
2022-10-04T20:03:29.961Z,7.30
2022-10-04T20:08:10.371Z,7.13
2022-10-04T20:12:41.993Z,7.40
2022-10-04T20:17:30.924Z,7.97
2022-10-04T20:21:53.284Z,7.70
2022-10-04T20:26:54.147Z,8.30
2022-10-04T20:31:10.682Z,7.93
2022-10-04T20:35:51.040Z,7.70
2022-10-04T20:40:42.970Z,7.83
2022-10-04T20:45:23.085Z,10.57
2022-10-04T20:49:45.656Z,6.87
2022-10-04T20:54:20.218Z,7.57
2022-10-04T20:58:59.677Z,8.83
2022-10-04T21:03:33.396Z,7.17
2022-10-04T21:07:38.069Z,7.80
2022-10-04T21:11:48.411Z,8.47
2022-10-04T21:16:28.552Z,8.37
2022-10-04T21:20:46.638Z,7.43
2022-10-04T21:25:41.463Z,7.00
2022-10-04T21:29:46.844Z,7.03
2022-10-04T21:34:48.300Z,7.10
2022-10-04T21:38:44.039Z,8.30
2022-10-04T21:43:18.117Z,6.73
2022-10-04T21:47:22.786Z,6.33
2022-10-04T21:51:26.000Z,6.57
2022-10-04T21:55:29.405Z,6.67
2022-10-04T21:59:32.615Z,9.60
2022-10-04T22:03:37.218Z,6.47
2022-10-04T22:07:40.486Z,6.30
2022-10-04T22:11:43.893Z,7.47
2022-10-04T22:15:47.168Z,6.80
2022-10-04T22:20:21.143Z,5.53
2022-10-04T22:24:25.798Z,6.10
2022-10-04T22:28:31.229Z,6.60
2022-10-04T22:33:04.758Z,9.97
2022-10-04T22:37:11.849Z,6.37
2022-10-04T22:41:19.058Z,6.90
2022-10-04T22:45:53.010Z,6.37
2022-10-04T22:50:31.877Z,6.07
2022-10-04T22:54:36.787Z,6.53
2022-10-04T22:58:41.784Z,7.53
2022-10-04T23:03:19.758Z,7.17
2022-10-04T23:07:23.726Z,7.63
2022-10-04T23:11:57.635Z,6.90
2022-10-04T23:16:12.317Z,6.80
2022-10-04T23:20:37.020Z,6.53
2022-10-04T23:24:40.261Z,6.57
2022-10-04T23:29:19.547Z,7.70
2022-10-04T23:33:24.983Z,7.83
2022-10-04T23:37:32.933Z,7.33
2022-10-04T23:41:36.126Z,7.97
2022-10-04T23:45:47.092Z,6.93
2022-10-04T23:50:22.411Z,7.10
2022-10-04T23:54:25.616Z,7.97
2022-10-04T23:58:33.079Z,10.00
